sensor_id;sensor_type;location;lat;lon;timestamp;P1;durP1;ratioP1;P2;durP2;ratioP2
63259;SDS011;49390;51.380;0.098;2023-05-02T00:02:26;5.07;;;2.97;;
63259;SDS011;49390;51.380;0.098;2023-05-02T00:04:54;5.15;;;2.85;;
63259;SDS011;49390;51.380;0.098;2023-05-02T00:07:23;6.88;;;3.00;;
63259;SDS011;49390;51.380;0.098;2023-05-02T00:09:52;5.70;;;2.90;;
63259;SDS011;49390;51.380;0.098;2023-05-02T00:12:24;4.60;;;2.72;;
63259;SDS011;49390;51.380;0.098;2023-05-02T00:14:52;6.75;;;3.17;;
63259;SDS011;49390;51.380;0.098;2023-05-02T00:17:20;5.68;;;2.78;;
63259;SDS011;49390;51.380;0.098;2023-05-02T00:19:48;4.75;;;2.70;;
63259;SDS011;49390;51.380;0.098;2023-05-02T00:22:16;4.55;;;2.90;;
63259;SDS011;49390;51.380;0.098;2023-05-02T00:24:44;6.38;;;3.03;;
63259;SDS011;49390;51.380;0.098;2023-05-02T00:27:12;5.93;;;3.05;;
63259;SDS011;49390;51.380;0.098;2023-05-02T00:29:40;4.70;;;3.00;;
63259;SDS011;49390;51.380;0.098;2023-05-02T00:32:08;15.38;;;4.90;;
63259;SDS011;49390;51.380;0.098;2023-05-02T00:34:36;7.05;;;3.17;;
63259;SDS011;49390;51.380;0.098;2023-05-02T00:37:04;9.25;;;3.80;;
63259;SDS011;49390;51.380;0.098;2023-05-02T00:39:35;6.40;;;3.00;;
63259;SDS011;49390;51.380;0.098;2023-05-02T00:42:03;5.70;;;2.90;;
63259;SDS011;49390;51.380;0.098;2023-05-02T00:44:32;5.85;;;3.22;;
63259;SDS011;49390;51.380;0.098;2023-05-02T00:47:00;6.30;;;2.85;;
63259;SDS011;49390;51.380;0.098;2023-05-02T00:49:28;5.00;;;2.95;;
63259;SDS011;49390;51.380;0.098;2023-05-02T00:51:57;4.13;;;2.75;;
63259;SDS011;49390;51.380;0.098;2023-05-02T00:54:25;4.75;;;2.72;;
63259;SDS011;49390;51.380;0.098;2023-05-02T00:56:54;6.85;;;3.35;;
63259;SDS011;49390;51.380;0.098;2023-05-02T00:59:21;6.88;;;3.20;;
63259;SDS011;49390;51.380;0.098;2023-05-02T01:01:59;5.70;;;3.20;;
63259;SDS011;49390;51.380;0.098;2023-05-02T01:04:42;5.93;;;3.00;;
63259;SDS011;49390;51.380;0.098;2023-05-02T01:10:33;5.55;;;2.97;;
63259;SDS011;49390;51.380;0.098;2023-05-02T01:13:25;5.75;;;3.17;;
63259;SDS011;49390;51.380;0.098;2023-05-02T01:15:58;4.85;;;3.13;;
63259;SDS011;49390;51.380;0.098;2023-05-02T01:18:31;5.35;;;3.00;;
63259;SDS011;49390;51.380;0.098;2023-05-02T01:21:03;5.90;;;3.13;;
63259;SDS011;49390;51.380;0.098;2023-05-02T01:29:05;6.30;;;3.80;;
63259;SDS011;49390;51.380;0.098;2023-05-02T01:31:34;8.38;;;4.22;;
63259;SDS011;49390;51.380;0.098;2023-05-02T01:34:07;5.97;;;3.72;;
63259;SDS011;49390;51.380;0.098;2023-05-02T01:36:39;8.13;;;4.40;;
63259;SDS011;49390;51.380;0.098;2023-05-02T01:39:10;7.55;;;4.05;;
63259;SDS011;49390;51.380;0.098;2023-05-02T01:41:42;7.72;;;4.00;;
63259;SDS011;49390;51.380;0.098;2023-05-02T01:44:11;7.63;;;4.38;;
63259;SDS011;49390;51.380;0.098;2023-05-02T01:46:41;8.68;;;4.65;;
63259;SDS011;49390;51.380;0.098;2023-05-02T01:49:11;8.95;;;4.55;;
63259;SDS011;49390;51.380;0.098;2023-05-02T01:51:46;7.93;;;4.78;;
63259;SDS011;49390;51.380;0.098;2023-05-02T01:54:16;7.40;;;4.63;;
63259;SDS011;49390;51.380;0.098;2023-05-02T01:56:46;7.18;;;4.43;;
63259;SDS011;49390;51.380;0.098;2023-05-02T01:59:16;8.27;;;4.43;;
63259;SDS011;49390;51.380;0.098;2023-05-02T02:01:45;7.88;;;4.13;;
63259;SDS011;49390;51.380;0.098;2023-05-02T02:04:16;9.52;;;4.70;;
63259;SDS011;49390;51.380;0.098;2023-05-02T02:06:51;10.55;;;4.93;;
63259;SDS011;49390;51.380;0.098;2023-05-02T02:09:24;8.63;;;4.80;;
63259;SDS011;49390;51.380;0.098;2023-05-02T02:11:58;10.00;;;5.28;;
63259;SDS011;49390;51.380;0.098;2023-05-02T02:14:38;9.85;;;5.32;;
63259;SDS011;49390;51.380;0.098;2023-05-02T02:17:14;11.18;;;5.75;;
63259;SDS011;49390;51.380;0.098;2023-05-02T02:19:48;11.13;;;6.22;;
63259;SDS011;49390;51.380;0.098;2023-05-02T02:27:09;16.00;;;7.30;;
63259;SDS011;49390;51.380;0.098;2023-05-02T02:29:37;12.15;;;6.40;;
63259;SDS011;49390;51.380;0.098;2023-05-02T02:32:05;12.27;;;6.30;;
63259;SDS011;49390;51.380;0.098;2023-05-02T02:34:33;12.55;;;6.65;;
63259;SDS011;49390;51.380;0.098;2023-05-02T02:37:11;10.63;;;5.93;;
63259;SDS011;49390;51.380;0.098;2023-05-02T02:56:18;12.95;;;6.78;;
63259;SDS011;49390;51.380;0.098;2023-05-02T02:59:05;11.90;;;6.43;;
63259;SDS011;49390;51.380;0.098;2023-05-02T03:01:40;13.10;;;6.72;;
63259;SDS011;49390;51.380;0.098;2023-05-02T03:06:38;12.68;;;6.88;;
63259;SDS011;49390;51.380;0.098;2023-05-02T03:09:13;14.27;;;6.78;;
63259;SDS011;49390;51.380;0.098;2023-05-02T03:11:46;13.75;;;6.55;;
63259;SDS011;49390;51.380;0.098;2023-05-02T03:14:15;13.07;;;7.53;;
63259;SDS011;49390;51.380;0.098;2023-05-02T03:16:43;14.90;;;7.28;;
63259;SDS011;49390;51.380;0.098;2023-05-02T03:21:42;14.68;;;6.63;;
63259;SDS011;49390;51.380;0.098;2023-05-02T03:24:16;14.43;;;8.20;;
63259;SDS011;49390;51.380;0.098;2023-05-02T03:26:48;16.40;;;8.05;;
63259;SDS011;49390;51.380;0.098;2023-05-02T03:29:22;18.20;;;9.10;;
63259;SDS011;49390;51.380;0.098;2023-05-02T03:31:50;17.88;;;8.70;;
63259;SDS011;49390;51.380;0.098;2023-05-02T03:34:20;22.00;;;10.23;;
63259;SDS011;49390;51.380;0.098;2023-05-02T03:36:50;20.48;;;9.52;;
63259;SDS011;49390;51.380;0.098;2023-05-02T03:39:19;22.83;;;10.85;;
63259;SDS011;49390;51.380;0.098;2023-05-02T03:41:48;20.15;;;10.00;;
63259;SDS011;49390;51.380;0.098;2023-05-02T03:44:19;21.77;;;10.52;;
63259;SDS011;49390;51.380;0.098;2023-05-02T03:46:47;19.10;;;9.32;;
63259;SDS011;49390;51.380;0.098;2023-05-02T03:49:15;22.08;;;10.80;;
63259;SDS011;49390;51.380;0.098;2023-05-02T03:51:45;20.13;;;10.35;;
63259;SDS011;49390;51.380;0.098;2023-05-02T03:54:18;20.42;;;9.43;;
63259;SDS011;49390;51.380;0.098;2023-05-02T03:56:46;24.98;;;12.20;;
63259;SDS011;49390;51.380;0.098;2023-05-02T03:59:20;22.52;;;10.82;;
63259;SDS011;49390;51.380;0.098;2023-05-02T04:01:51;20.75;;;11.18;;
63259;SDS011;49390;51.380;0.098;2023-05-02T04:04:26;25.25;;;11.50;;
63259;SDS011;49390;51.380;0.098;2023-05-02T04:06:54;25.23;;;11.63;;
63259;SDS011;49390;51.380;0.098;2023-05-02T04:09:22;20.73;;;10.95;;
63259;SDS011;49390;51.380;0.098;2023-05-02T04:11:56;22.27;;;10.93;;
63259;SDS011;49390;51.380;0.098;2023-05-02T04:14:24;24.80;;;11.18;;
63259;SDS011;49390;51.380;0.098;2023-05-02T04:16:54;22.23;;;11.00;;
63259;SDS011;49390;51.380;0.098;2023-05-02T04:19:37;22.88;;;11.18;;
63259;SDS011;49390;51.380;0.098;2023-05-02T04:22:05;20.88;;;10.90;;
63259;SDS011;49390;51.380;0.098;2023-05-02T04:24:37;22.13;;;11.13;;
63259;SDS011;49390;51.380;0.098;2023-05-02T04:27:05;20.17;;;10.60;;
63259;SDS011;49390;51.380;0.098;2023-05-02T04:29:34;20.30;;;9.88;;
63259;SDS011;49390;51.380;0.098;2023-05-02T04:32:04;21.10;;;11.02;;
63259;SDS011;49390;51.380;0.098;2023-05-02T04:34:38;20.70;;;10.25;;
63259;SDS011;49390;51.380;0.098;2023-05-02T04:37:07;18.88;;;10.43;;
63259;SDS011;49390;51.380;0.098;2023-05-02T04:39:35;20.25;;;10.05;;
63259;SDS011;49390;51.380;0.098;2023-05-02T04:42:08;21.67;;;9.55;;
63259;SDS011;49390;51.380;0.098;2023-05-02T04:44:44;18.15;;;9.30;;
63259;SDS011;49390;51.380;0.098;2023-05-02T04:47:13;18.45;;;8.43;;
63259;SDS011;49390;51.380;0.098;2023-05-02T04:49:41;15.05;;;8.13;;
63259;SDS011;49390;51.380;0.098;2023-05-02T04:52:09;15.18;;;8.30;;
63259;SDS011;49390;51.380;0.098;2023-05-02T04:54:38;16.33;;;7.93;;
63259;SDS011;49390;51.380;0.098;2023-05-02T04:57:06;16.08;;;8.20;;
63259;SDS011;49390;51.380;0.098;2023-05-02T04:59:39;13.70;;;7.28;;
63259;SDS011;49390;51.380;0.098;2023-05-02T05:02:07;13.70;;;6.97;;
63259;SDS011;49390;51.380;0.098;2023-05-02T05:04:42;14.15;;;6.50;;
63259;SDS011;49390;51.380;0.098;2023-05-02T05:07:11;12.15;;;6.03;;
63259;SDS011;49390;51.380;0.098;2023-05-02T05:09:42;10.93;;;5.55;;
63259;SDS011;49390;51.380;0.098;2023-05-02T05:12:10;9.75;;;5.00;;
63259;SDS011;49390;51.380;0.098;2023-05-02T05:14:38;9.52;;;4.50;;
63259;SDS011;49390;51.380;0.098;2023-05-02T05:17:06;6.78;;;4.40;;
63259;SDS011;49390;51.380;0.098;2023-05-02T05:19:35;9.75;;;5.20;;
63259;SDS011;49390;51.380;0.098;2023-05-02T05:22:03;7.97;;;4.72;;
63259;SDS011;49390;51.380;0.098;2023-05-02T05:24:34;8.83;;;5.00;;
63259;SDS011;49390;51.380;0.098;2023-05-02T05:27:01;10.35;;;4.90;;
63259;SDS011;49390;51.380;0.098;2023-05-02T05:29:30;8.45;;;4.75;;
63259;SDS011;49390;51.380;0.098;2023-05-02T05:31:59;9.52;;;5.05;;
63259;SDS011;49390;51.380;0.098;2023-05-02T05:34:28;7.90;;;4.95;;
63259;SDS011;49390;51.380;0.098;2023-05-02T05:36:59;7.43;;;4.55;;
63259;SDS011;49390;51.380;0.098;2023-05-02T05:39:27;9.48;;;5.63;;
63259;SDS011;49390;51.380;0.098;2023-05-02T05:41:57;9.35;;;5.32;;
63259;SDS011;49390;51.380;0.098;2023-05-02T05:44:26;12.93;;;6.07;;
63259;SDS011;49390;51.380;0.098;2023-05-02T05:46:55;11.40;;;6.05;;
63259;SDS011;49390;51.380;0.098;2023-05-02T05:49:25;9.80;;;5.70;;
63259;SDS011;49390;51.380;0.098;2023-05-02T05:51:53;11.57;;;6.00;;
63259;SDS011;49390;51.380;0.098;2023-05-02T05:54:21;10.70;;;5.57;;
63259;SDS011;49390;51.380;0.098;2023-05-02T05:56:49;11.00;;;5.65;;
63259;SDS011;49390;51.380;0.098;2023-05-02T05:59:19;9.32;;;5.80;;
63259;SDS011;49390;51.380;0.098;2023-05-02T06:01:47;9.52;;;5.60;;
63259;SDS011;49390;51.380;0.098;2023-05-02T06:04:18;10.90;;;5.60;;
63259;SDS011;49390;51.380;0.098;2023-05-02T06:06:48;9.68;;;5.75;;
63259;SDS011;49390;51.380;0.098;2023-05-02T06:09:18;10.38;;;5.63;;
63259;SDS011;49390;51.380;0.098;2023-05-02T06:11:46;9.90;;;5.60;;
63259;SDS011;49390;51.380;0.098;2023-05-02T06:14:17;11.00;;;5.00;;
63259;SDS011;49390;51.380;0.098;2023-05-02T06:16:47;8.80;;;4.75;;
63259;SDS011;49390;51.380;0.098;2023-05-02T06:19:15;7.70;;;5.05;;
63259;SDS011;49390;51.380;0.098;2023-05-02T06:21:43;9.32;;;5.05;;
63259;SDS011;49390;51.380;0.098;2023-05-02T06:24:11;10.73;;;5.40;;
63259;SDS011;49390;51.380;0.098;2023-05-02T06:26:39;12.40;;;5.20;;
63259;SDS011;49390;51.380;0.098;2023-05-02T06:29:07;10.85;;;5.70;;
63259;SDS011;49390;51.380;0.098;2023-05-02T06:31:35;12.48;;;5.32;;
63259;SDS011;49390;51.380;0.098;2023-05-02T06:34:03;10.30;;;5.35;;
63259;SDS011;49390;51.380;0.098;2023-05-02T06:36:31;10.95;;;5.88;;
63259;SDS011;49390;51.380;0.098;2023-05-02T06:38:59;10.07;;;5.70;;
63259;SDS011;49390;51.380;0.098;2023-05-02T06:41:27;9.23;;;5.68;;
63259;SDS011;49390;51.380;0.098;2023-05-02T06:43:55;9.52;;;5.57;;
63259;SDS011;49390;51.380;0.098;2023-05-02T06:46:26;10.15;;;5.28;;
63259;SDS011;49390;51.380;0.098;2023-05-02T06:48:56;10.38;;;5.55;;
63259;SDS011;49390;51.380;0.098;2023-05-02T06:52:05;11.45;;;5.78;;
63259;SDS011;49390;51.380;0.098;2023-05-02T06:54:33;12.20;;;6.25;;
63259;SDS011;49390;51.380;0.098;2023-05-02T06:57:01;10.93;;;5.65;;
63259;SDS011;49390;51.380;0.098;2023-05-02T06:59:29;12.63;;;6.15;;
63259;SDS011;49390;51.380;0.098;2023-05-02T07:01:57;10.80;;;5.88;;
63259;SDS011;49390;51.380;0.098;2023-05-02T07:04:25;10.52;;;5.65;;
63259;SDS011;49390;51.380;0.098;2023-05-02T07:06:56;11.57;;;6.77;;
63259;SDS011;49390;51.380;0.098;2023-05-02T07:09:24;11.52;;;6.43;;
63259;SDS011;49390;51.380;0.098;2023-05-02T07:11:51;12.73;;;6.50;;
63259;SDS011;49390;51.380;0.098;2023-05-02T07:14:19;10.73;;;6.30;;
63259;SDS011;49390;51.380;0.098;2023-05-02T07:16:47;13.80;;;6.72;;
63259;SDS011;49390;51.380;0.098;2023-05-02T07:19:16;16.30;;;7.15;;
63259;SDS011;49390;51.380;0.098;2023-05-02T07:21:43;10.65;;;6.70;;
63259;SDS011;49390;51.380;0.098;2023-05-02T07:24:12;13.85;;;6.30;;
63259;SDS011;49390;51.380;0.098;2023-05-02T07:26:39;12.20;;;6.10;;
63259;SDS011;49390;51.380;0.098;2023-05-02T07:29:07;11.80;;;5.90;;
63259;SDS011;49390;51.380;0.098;2023-05-02T07:31:35;11.93;;;5.80;;
63259;SDS011;49390;51.380;0.098;2023-05-02T07:34:04;13.73;;;6.72;;
63259;SDS011;49390;51.380;0.098;2023-05-02T07:36:31;13.98;;;6.80;;
63259;SDS011;49390;51.380;0.098;2023-05-02T07:38:59;14.32;;;7.10;;
63259;SDS011;49390;51.380;0.098;2023-05-02T07:41:27;15.68;;;7.38;;
63259;SDS011;49390;51.380;0.098;2023-05-02T07:43:55;16.88;;;6.78;;
63259;SDS011;49390;51.380;0.098;2023-05-02T07:46:25;13.20;;;7.57;;
63259;SDS011;49390;51.380;0.098;2023-05-02T07:48:53;13.48;;;7.50;;
63259;SDS011;49390;51.380;0.098;2023-05-02T07:51:22;11.38;;;6.22;;
63259;SDS011;49390;51.380;0.098;2023-05-02T07:53:50;12.60;;;6.00;;
63259;SDS011;49390;51.380;0.098;2023-05-02T07:56:22;13.70;;;6.68;;
63259;SDS011;49390;51.380;0.098;2023-05-02T07:58:50;14.15;;;6.65;;
63259;SDS011;49390;51.380;0.098;2023-05-02T08:01:18;13.38;;;6.28;;
63259;SDS011;49390;51.380;0.098;2023-05-02T08:03:49;12.70;;;6.55;;
63259;SDS011;49390;51.380;0.098;2023-05-02T08:06:17;12.98;;;6.40;;
63259;SDS011;49390;51.380;0.098;2023-05-02T08:08:45;14.23;;;7.25;;
63259;SDS011;49390;51.380;0.098;2023-05-02T08:11:13;13.68;;;7.05;;
63259;SDS011;49390;51.380;0.098;2023-05-02T08:13:41;20.83;;;7.90;;
63259;SDS011;49390;51.380;0.098;2023-05-02T08:16:09;16.33;;;7.43;;
63259;SDS011;49390;51.380;0.098;2023-05-02T08:18:37;19.05;;;7.85;;
63259;SDS011;49390;51.380;0.098;2023-05-02T08:21:05;18.48;;;7.32;;
63259;SDS011;49390;51.380;0.098;2023-05-02T08:23:33;12.20;;;6.43;;
63259;SDS011;49390;51.380;0.098;2023-05-02T08:26:02;13.00;;;6.47;;
63259;SDS011;49390;51.380;0.098;2023-05-02T08:28:30;15.65;;;5.85;;
63259;SDS011;49390;51.380;0.098;2023-05-02T08:30:58;11.80;;;5.05;;
63259;SDS011;49390;51.380;0.098;2023-05-02T08:33:26;13.70;;;4.30;;
63259;SDS011;49390;51.380;0.098;2023-05-02T08:35:54;8.55;;;3.88;;
63259;SDS011;49390;51.380;0.098;2023-05-02T08:38:22;8.05;;;4.13;;
63259;SDS011;49390;51.380;0.098;2023-05-02T08:40:50;5.68;;;3.05;;
63259;SDS011;49390;51.380;0.098;2023-05-02T08:43:18;8.52;;;3.70;;
63259;SDS011;49390;51.380;0.098;2023-05-02T08:45:47;5.93;;;3.22;;
63259;SDS011;49390;51.380;0.098;2023-05-02T08:48:21;8.93;;;3.35;;
63259;SDS011;49390;51.380;0.098;2023-05-02T08:50:49;7.63;;;3.63;;
63259;SDS011;49390;51.380;0.098;2023-05-02T08:53:20;7.93;;;3.58;;
63259;SDS011;49390;51.380;0.098;2023-05-02T08:55:50;5.60;;;3.30;;
63259;SDS011;49390;51.380;0.098;2023-05-02T08:58:18;10.02;;;3.67;;
63259;SDS011;49390;51.380;0.098;2023-05-02T09:00:46;9.20;;;3.65;;
63259;SDS011;49390;51.380;0.098;2023-05-02T09:03:28;11.10;;;3.47;;
63259;SDS011;49390;51.380;0.098;2023-05-02T09:06:34;9.02;;;3.95;;
63259;SDS011;49390;51.380;0.098;2023-05-02T09:08:58;7.60;;;3.38;;
63259;SDS011;49390;51.380;0.098;2023-05-02T09:11:26;8.65;;;3.85;;
63259;SDS011;49390;51.380;0.098;2023-05-02T09:13:55;8.13;;;3.00;;
63259;SDS011;49390;51.380;0.098;2023-05-02T09:16:25;9.30;;;3.58;;
63259;SDS011;49390;51.380;0.098;2023-05-02T09:18:54;9.90;;;3.50;;
63259;SDS011;49390;51.380;0.098;2023-05-02T09:21:24;13.10;;;3.50;;
63259;SDS011;49390;51.380;0.098;2023-05-02T09:24:01;9.35;;;3.30;;
63259;SDS011;49390;51.380;0.098;2023-05-02T09:26:40;9.45;;;3.30;;
63259;SDS011;49390;51.380;0.098;2023-05-02T09:29:08;6.07;;;3.40;;
63259;SDS011;49390;51.380;0.098;2023-05-02T09:31:36;10.77;;;3.75;;
63259;SDS011;49390;51.380;0.098;2023-05-02T09:34:24;8.13;;;3.20;;
63259;SDS011;49390;51.380;0.098;2023-05-02T09:36:52;8.50;;;3.30;;
63259;SDS011;49390;51.380;0.098;2023-05-02T09:39:25;10.07;;;3.10;;
63259;SDS011;49390;51.380;0.098;2023-05-02T09:41:55;6.05;;;2.88;;
63259;SDS011;49390;51.380;0.098;2023-05-02T09:44:24;9.35;;;3.15;;
63259;SDS011;49390;51.380;0.098;2023-05-02T09:46:54;8.25;;;3.10;;
63259;SDS011;49390;51.380;0.098;2023-05-02T09:49:37;7.38;;;3.00;;
63259;SDS011;49390;51.380;0.098;2023-05-02T09:52:11;6.03;;;2.70;;
63259;SDS011;49390;51.380;0.098;2023-05-02T09:54:40;9.40;;;2.95;;
63259;SDS011;49390;51.380;0.098;2023-05-02T09:57:08;8.80;;;3.30;;
63259;SDS011;49390;51.380;0.098;2023-05-02T09:59:38;6.75;;;3.03;;
63259;SDS011;49390;51.380;0.098;2023-05-02T10:02:08;9.43;;;3.00;;
63259;SDS011;49390;51.380;0.098;2023-05-02T10:04:38;9.05;;;3.50;;
63259;SDS011;49390;51.380;0.098;2023-05-02T10:07:08;11.30;;;3.38;;
63259;SDS011;49390;51.380;0.098;2023-05-02T10:12:10;10.02;;;3.10;;
63259;SDS011;49390;51.380;0.098;2023-05-02T10:14:44;11.27;;;3.53;;
63259;SDS011;49390;51.380;0.098;2023-05-02T10:17:19;5.80;;;3.03;;
63259;SDS011;49390;51.380;0.098;2023-05-02T10:19:56;8.00;;;3.30;;
63259;SDS011;49390;51.380;0.098;2023-05-02T10:22:33;6.10;;;2.80;;
63259;SDS011;49390;51.380;0.098;2023-05-02T10:25:02;8.52;;;3.00;;
63259;SDS011;49390;51.380;0.098;2023-05-02T10:27:31;6.93;;;3.40;;
63259;SDS011;49390;51.380;0.098;2023-05-02T10:30:00;9.13;;;3.00;;
63259;SDS011;49390;51.380;0.098;2023-05-02T10:32:31;6.73;;;3.13;;
63259;SDS011;49390;51.380;0.098;2023-05-02T10:35:02;8.90;;;3.30;;
63259;SDS011;49390;51.380;0.098;2023-05-02T10:37:32;7.45;;;3.20;;
63259;SDS011;49390;51.380;0.098;2023-05-02T10:40:03;6.13;;;3.15;;
63259;SDS011;49390;51.380;0.098;2023-05-02T10:42:34;7.00;;;3.35;;
63259;SDS011;49390;51.380;0.098;2023-05-02T10:45:12;9.63;;;3.22;;
63259;SDS011;49390;51.380;0.098;2023-05-02T10:50:42;8.70;;;3.00;;
63259;SDS011;49390;51.380;0.098;2023-05-02T10:53:31;10.87;;;3.87;;
63259;SDS011;49390;51.380;0.098;2023-05-02T10:58:49;8.82;;;3.75;;
63259;SDS011;49390;51.380;0.098;2023-05-02T11:04:08;9.13;;;3.60;;
63259;SDS011;49390;51.380;0.098;2023-05-02T11:07:23;7.80;;;3.35;;
63259;SDS011;49390;51.380;0.098;2023-05-02T11:11:57;10.02;;;3.50;;
63259;SDS011;49390;51.380;0.098;2023-05-02T11:17:05;10.93;;;4.05;;
63259;SDS011;49390;51.380;0.098;2023-05-02T11:24:44;10.18;;;3.00;;
63259;SDS011;49390;51.380;0.098;2023-05-02T11:30:00;8.05;;;3.05;;
63259;SDS011;49390;51.380;0.098;2023-05-02T11:35:17;6.15;;;2.65;;
63259;SDS011;49390;51.380;0.098;2023-05-02T11:37:53;12.32;;;4.22;;
63259;SDS011;49390;51.380;0.098;2023-05-02T11:40:28;9.90;;;3.05;;
63259;SDS011;49390;51.380;0.098;2023-05-02T11:42:58;8.93;;;3.45;;
63259;SDS011;49390;51.380;0.098;2023-05-02T11:45:33;7.28;;;2.78;;
63259;SDS011;49390;51.380;0.098;2023-05-02T11:48:05;8.98;;;3.55;;
63259;SDS011;49390;51.380;0.098;2023-05-02T11:50:41;8.15;;;3.53;;
63259;SDS011;49390;51.380;0.098;2023-05-02T11:53:20;10.93;;;3.30;;
63259;SDS011;49390;51.380;0.098;2023-05-02T11:55:50;10.18;;;3.00;;
63259;SDS011;49390;51.380;0.098;2023-05-02T11:58:24;8.27;;;3.83;;
63259;SDS011;49390;51.380;0.098;2023-05-02T12:00:55;7.70;;;3.38;;
63259;SDS011;49390;51.380;0.098;2023-05-02T12:03:26;8.73;;;3.00;;
63259;SDS011;49390;51.380;0.098;2023-05-02T12:05:54;6.10;;;2.90;;
63259;SDS011;49390;51.380;0.098;2023-05-02T12:08:27;10.15;;;3.22;;
63259;SDS011;49390;51.380;0.098;2023-05-02T12:10:55;8.60;;;3.50;;
63259;SDS011;49390;51.380;0.098;2023-05-02T12:13:24;10.95;;;3.55;;
63259;SDS011;49390;51.380;0.098;2023-05-02T12:15:53;7.55;;;3.40;;
63259;SDS011;49390;51.380;0.098;2023-05-02T12:18:23;9.38;;;4.18;;
63259;SDS011;49390;51.380;0.098;2023-05-02T12:20:54;7.17;;;3.30;;
63259;SDS011;49390;51.380;0.098;2023-05-02T12:23:23;6.93;;;3.17;;
63259;SDS011;49390;51.380;0.098;2023-05-02T12:25:55;8.18;;;3.17;;
63259;SDS011;49390;51.380;0.098;2023-05-02T12:28:23;7.72;;;2.90;;
63259;SDS011;49390;51.380;0.098;2023-05-02T12:30:51;7.32;;;3.13;;
63259;SDS011;49390;51.380;0.098;2023-05-02T12:33:22;7.50;;;3.67;;
63259;SDS011;49390;51.380;0.098;2023-05-02T12:35:52;8.93;;;3.03;;
63259;SDS011;49390;51.380;0.098;2023-05-02T12:38:20;7.15;;;3.08;;
63259;SDS011;49390;51.380;0.098;2023-05-02T12:40:54;8.40;;;3.13;;
63259;SDS011;49390;51.380;0.098;2023-05-02T12:43:24;7.90;;;3.30;;
63259;SDS011;49390;51.380;0.098;2023-05-02T12:46:07;6.03;;;3.33;;
63259;SDS011;49390;51.380;0.098;2023-05-02T12:48:37;8.18;;;3.60;;
63259;SDS011;49390;51.380;0.098;2023-05-02T12:51:05;10.68;;;4.25;;
63259;SDS011;49390;51.380;0.098;2023-05-02T12:53:40;8.95;;;4.15;;
63259;SDS011;49390;51.380;0.098;2023-05-02T12:56:10;13.30;;;6.13;;
63259;SDS011;49390;51.380;0.098;2023-05-02T12:58:42;8.63;;;3.60;;
63259;SDS011;49390;51.380;0.098;2023-05-02T13:01:11;7.15;;;3.55;;
63259;SDS011;49390;51.380;0.098;2023-05-02T13:03:40;8.95;;;3.35;;
63259;SDS011;49390;51.380;0.098;2023-05-02T13:06:09;11.77;;;4.22;;
63259;SDS011;49390;51.380;0.098;2023-05-02T13:08:37;6.53;;;3.20;;
63259;SDS011;49390;51.380;0.098;2023-05-02T13:11:06;9.18;;;3.35;;
63259;SDS011;49390;51.380;0.098;2023-05-02T13:13:34;9.07;;;3.30;;
63259;SDS011;49390;51.380;0.098;2023-05-02T13:16:02;10.68;;;3.75;;
63259;SDS011;49390;51.380;0.098;2023-05-02T13:18:30;9.10;;;3.08;;
63259;SDS011;49390;51.380;0.098;2023-05-02T13:20:58;9.63;;;4.38;;
63259;SDS011;49390;51.380;0.098;2023-05-02T13:23:26;9.20;;;4.35;;
63259;SDS011;49390;51.380;0.098;2023-05-02T13:25:56;8.52;;;3.53;;
63259;SDS011;49390;51.380;0.098;2023-05-02T13:28:25;9.18;;;3.90;;
63259;SDS011;49390;51.380;0.098;2023-05-02T13:30:53;6.95;;;3.25;;
63259;SDS011;49390;51.380;0.098;2023-05-02T13:33:21;9.65;;;3.60;;
63259;SDS011;49390;51.380;0.098;2023-05-02T13:35:49;8.32;;;3.85;;
63259;SDS011;49390;51.380;0.098;2023-05-02T13:38:17;7.75;;;3.22;;
63259;SDS011;49390;51.380;0.098;2023-05-02T13:40:45;7.78;;;3.65;;
63259;SDS011;49390;51.380;0.098;2023-05-02T13:43:13;10.38;;;3.55;;
63259;SDS011;49390;51.380;0.098;2023-05-02T13:45:41;7.68;;;4.05;;
63259;SDS011;49390;51.380;0.098;2023-05-02T13:48:10;7.72;;;3.20;;
63259;SDS011;49390;51.380;0.098;2023-05-02T13:50:38;5.80;;;3.10;;
63259;SDS011;49390;51.380;0.098;2023-05-02T13:53:06;13.43;;;4.40;;
63259;SDS011;49390;51.380;0.098;2023-05-02T13:55:34;8.50;;;3.30;;
63259;SDS011;49390;51.380;0.098;2023-05-02T13:58:02;13.15;;;5.32;;
63259;SDS011;49390;51.380;0.098;2023-05-02T14:00:30;5.93;;;3.33;;
63259;SDS011;49390;51.380;0.098;2023-05-02T14:02:58;12.55;;;3.65;;
63259;SDS011;49390;51.380;0.098;2023-05-02T14:05:26;7.47;;;4.10;;
63259;SDS011;49390;51.380;0.098;2023-05-02T14:07:54;8.40;;;3.65;;
63259;SDS011;49390;51.380;0.098;2023-05-02T14:10:24;7.15;;;3.35;;
63259;SDS011;49390;51.380;0.098;2023-05-02T14:12:52;13.18;;;3.85;;
63259;SDS011;49390;51.380;0.098;2023-05-02T14:15:20;9.80;;;3.10;;
63259;SDS011;49390;51.380;0.098;2023-05-02T14:17:48;10.32;;;3.50;;
63259;SDS011;49390;51.380;0.098;2023-05-02T14:20:16;6.90;;;3.17;;
63259;SDS011;49390;51.380;0.098;2023-05-02T14:22:44;10.65;;;3.25;;
63259;SDS011;49390;51.380;0.098;2023-05-02T14:25:15;20.27;;;10.88;;
63259;SDS011;49390;51.380;0.098;2023-05-02T14:27:46;10.65;;;3.78;;
63259;SDS011;49390;51.380;0.098;2023-05-02T14:30:14;11.95;;;4.22;;
63259;SDS011;49390;51.380;0.098;2023-05-02T14:32:42;6.70;;;3.38;;
63259;SDS011;49390;51.380;0.098;2023-05-02T14:35:10;7.97;;;3.08;;
63259;SDS011;49390;51.380;0.098;2023-05-02T14:37:38;5.60;;;2.75;;
63259;SDS011;49390;51.380;0.098;2023-05-02T14:40:06;8.43;;;3.00;;
63259;SDS011;49390;51.380;0.098;2023-05-02T14:42:35;8.35;;;3.22;;
63259;SDS011;49390;51.380;0.098;2023-05-02T14:45:03;8.77;;;3.53;;
63259;SDS011;49390;51.380;0.098;2023-05-02T14:47:31;11.75;;;3.53;;
63259;SDS011;49390;51.380;0.098;2023-05-02T14:50:01;9.95;;;4.13;;
63259;SDS011;49390;51.380;0.098;2023-05-02T14:54:59;6.63;;;3.38;;
63259;SDS011;49390;51.380;0.098;2023-05-02T14:57:29;8.60;;;3.50;;
63259;SDS011;49390;51.380;0.098;2023-05-02T14:59:57;10.50;;;3.50;;
63259;SDS011;49390;51.380;0.098;2023-05-02T15:02:25;7.88;;;3.33;;
63259;SDS011;49390;51.380;0.098;2023-05-02T15:04:53;8.48;;;3.38;;
63259;SDS011;49390;51.380;0.098;2023-05-02T15:07:21;9.00;;;3.67;;
63259;SDS011;49390;51.380;0.098;2023-05-02T15:09:49;7.10;;;3.53;;
63259;SDS011;49390;51.380;0.098;2023-05-02T15:12:17;7.93;;;3.80;;
63259;SDS011;49390;51.380;0.098;2023-05-02T15:14:45;7.40;;;3.65;;
63259;SDS011;49390;51.380;0.098;2023-05-02T15:17:13;9.88;;;3.58;;
63259;SDS011;49390;51.380;0.098;2023-05-02T15:19:41;9.27;;;4.07;;
63259;SDS011;49390;51.380;0.098;2023-05-02T15:22:09;11.35;;;3.72;;
63259;SDS011;49390;51.380;0.098;2023-05-02T15:24:38;7.82;;;3.35;;
63259;SDS011;49390;51.380;0.098;2023-05-02T15:27:07;7.97;;;3.47;;
63259;SDS011;49390;51.380;0.098;2023-05-02T15:29:35;9.52;;;3.47;;
63259;SDS011;49390;51.380;0.098;2023-05-02T15:32:03;8.02;;;3.40;;
63259;SDS011;49390;51.380;0.098;2023-05-02T15:34:31;8.30;;;3.63;;
63259;SDS011;49390;51.380;0.098;2023-05-02T15:36:59;10.07;;;3.50;;
63259;SDS011;49390;51.380;0.098;2023-05-02T15:39:28;8.13;;;3.67;;
63259;SDS011;49390;51.380;0.098;2023-05-02T15:41:56;7.90;;;3.20;;
63259;SDS011;49390;51.380;0.098;2023-05-02T15:44:24;7.97;;;3.05;;
63259;SDS011;49390;51.380;0.098;2023-05-02T15:46:52;10.93;;;3.60;;
63259;SDS011;49390;51.380;0.098;2023-05-02T15:49:22;9.18;;;3.10;;
63259;SDS011;49390;51.380;0.098;2023-05-02T15:51:51;7.82;;;2.92;;
63259;SDS011;49390;51.380;0.098;2023-05-02T15:54:19;6.93;;;3.20;;
63259;SDS011;49390;51.380;0.098;2023-05-02T15:56:47;6.80;;;3.05;;
63259;SDS011;49390;51.380;0.098;2023-05-02T16:01:48;8.48;;;3.08;;
63259;SDS011;49390;51.380;0.098;2023-05-02T16:04:16;15.88;;;3.90;;
63259;SDS011;49390;51.380;0.098;2023-05-02T16:06:44;10.18;;;3.30;;